Latest Coastal Weather Observations for Horn Island

IDQ60701

Issued at 4:12 am EST Saturday 25 November 2017 (issued every 10 minutes, with the page automatically refreshed every 10 minutes)

About coastal observations | Map of coastal stations | Coastal observations for QLD | Marine services | Other Formats
Station Details ID: 027058 Name: HORN ISLAND Lat: -10.58 Lon: 142.29 Height: 4.0 m
Data from the previous 72 hours. | See also: Recent months at Horn Island
Date/Time
EST
Temp
°C
Wind Pressure Rain since
9am
mm
Weather Cloud Vis
km
Sea
Height
m
Swell
Dir  Spd
kts
Gust
kts
hPa Trend Height
m
Period
s
Dir
25/04:00am 27.6 E 12 16 1008.1 - 0.0 - Partly cloudy 10 - - - -
25/03:30am 27.5 ESE 10 14 1008.1 - 0.0 - Partly cloudy 10 - - - -
25/03:00am 27.6 E 12 17 1007.9 - 0.0 - Mostly clear 10 - - - -
25/02:30am 27.6 ESE 11 15 1008.2 - 0.0 - Partly cloudy 10 - - - -
25/02:00am 27.6 ESE 10 15 1008.1 - 0.0 - Partly cloudy 10 - - - -
25/01:30am 27.7 ESE 12 15 1008.1 - 0.0 - Partly cloudy 10 - - - -
25/01:00am 27.8 ESE 11 15 1008.5 - 0.0 - Partly cloudy 10 - - - -
25/12:30am 27.8 ESE 11 16 1008.9 - 0.0 - Partly cloudy 10 - - - -
25/12:00am 27.8 ESE 11 14 1009.1 - 0.0 - Partly cloudy 10 - - - -
 
Date/Time
EST
Temp
°C
Wind Pressure Rain since
9am
mm
Weather Cloud Vis
km
Sea
Height
m
Swell
Dir  Spd
kts
Gust
kts
hPa Trend Height
m
Period
s
Dir
24/11:30pm 27.9 ESE 11 16 1009.4 - 0.0 - Partly cloudy 10 - - - -
24/11:00pm 27.8 ESE 10 13 1009.5 - 0.0 - Partly cloudy 10 - - - -
24/10:30pm 27.8 ESE 10 14 1009.4 - 0.0 - Partly cloudy 10 - - - -
24/10:00pm 28.0 ESE 10 14 1009.4 - 0.0 - Partly cloudy 10 - - - -
24/09:30pm 27.9 ESE 11 16 1009.3 - 0.0 - Partly cloudy 10 - - - -
24/09:00pm 28.1 ESE 11 16 1008.9 - 0.0 - Partly cloudy 10 - - - -
24/08:30pm 28.0 ESE 11 16 1008.5 - 0.0 - Partly cloudy 10 - - - -
24/08:00pm 28.0 ESE 12 16 1008.2 - 0.0 - Partly cloudy 10 - - - -
24/07:30pm 28.1 ESE 11 16 1008.0 - 0.0 - Partly cloudy 10 - - - -
24/07:00pm 28.2 E 12 17 1008.0 - 0.0 - - 10 - - - -
24/06:30pm 28.5 E 11 15 1007.9 - 0.0 - - 10 - - - -
24/06:00pm 29.0 E 12 17 1007.7 - 0.0 - - 10 - - - -
24/05:30pm 29.9 ESE 13 18 1007.5 - 0.0 - - 10 - - - -
24/05:00pm 29.7 E 14 19 1007.3 - 0.0 - - 10 - - - -
24/04:30pm 30.2 E 14 19 1007.2 - 0.0 - - 10 - - - -
24/04:00pm 30.8 E 15 19 1007.1 - 0.0 - - 10 - - - -
24/03:30pm 30.7 E 14 20 1007.4 - 0.0 - - 10 - - - -
24/03:00pm 30.9 E 14 19 1007.6 - 0.0 - - 10 - - - -
24/02:30pm 31.4 E 15 19 1008.0 - 0.0 - - 10 - - - -
24/02:00pm 30.9 E 14 18 1008.5 - 0.0 - Partly cloudy 10 - - - -
24/01:30pm 31.2 E 14 19 1008.8 - 0.0 - - 10 - - - -
24/01:00pm 32.4 E 14 20 1009.4 - 0.0 - Partly cloudy 10 - - - -
24/12:30pm 30.9 ENE 13 18 1009.8 - 0.0 - - 10 - - - -
24/12:00pm 31.5 E 14 18 1010.2 - 0.0 - - 10 - - - -
24/11:30am 30.7 E 14 19 1010.4 - 0.0 - - 10 - - - -
24/11:00am 31.2 E 13 19 1010.8 - 0.0 - Partly cloudy 10 - - - -
24/10:30am 30.4 E 13 19 1010.7 - 0.0 - Partly cloudy 10 - - - -
24/10:00am 30.7 E 14 18 1010.8 - 0.0 - - 10 - - - -
24/09:30am 30.0 E 14 19 1010.7 - 0.0 - Partly cloudy 10 - - - -
24/09:00am 29.6 E 12 17 1010.5 - 0.0 - Mostly clear 10 - - - -
24/08:30am 29.7 E 13 18 1010.2 - 0.0 - Partly cloudy 10 - - - -
24/08:00am 29.5 E 11 16 1010.0 - 0.0 - Partly cloudy 10 - - - -
24/07:30am 29.1 E 10 15 1009.9 - 0.0 - Partly cloudy 10 - - - -
24/07:00am 28.4 E 11 15 1009.6 - 0.0 - - 10 - - - -
24/06:30am 28.2 E 8 11 1009.2 - 0.0 - Partly cloudy 10 - - - -
24/06:00am 27.4 E 9 14 1008.7 - 0.0 - Partly cloudy 10 - - - -
24/05:30am 27.5 E 9 14 1008.3 - 0.0 - Partly cloudy 10 - - - -
24/05:00am 27.4 E 10 13 1008.0 - 0.0 - Partly cloudy 10 - - - -
24/04:30am 27.4 E 9 12 1007.9 - 0.0 - Partly cloudy 10 - - - -
24/04:00am 27.3 E 8 10 1007.9 - 0.0 - Partly cloudy 10 - - - -
24/03:30am 27.4 E 8 12 1008.0 - 0.0 - Partly cloudy 10 - - - -
24/03:00am 27.6 E 9 13 1008.0 - 0.0 - Mostly cloudy 10 - - - -
24/02:30am 27.5 E 9 13 1007.9 - 0.0 - Partly cloudy 10 - - - -
24/02:00am 27.6 E 7 10 1008.0 - 0.0 - Partly cloudy 10 - - - -
24/01:30am 27.5 E 8 10 1008.2 - 0.0 - Partly cloudy 10 - - - -
24/01:00am 27.6 E 8 10 1008.6 - 0.0 - Partly cloudy 10 - - - -
24/12:30am 27.7 E 8 11 1008.9 - 0.0 - Partly cloudy 10 - - - -
24/12:00am 27.7 E 8 10 1009.1 - 0.0 - Partly cloudy 10 - - - -
 
Date/Time
EST
Temp
°C
Wind Pressure Rain since
9am
mm
Weather Cloud Vis
km
Sea
Height
m
Swell
Dir  Spd
kts
Gust
kts
hPa Trend Height
m
Period
s
Dir
23/11:30pm 27.6 E 7 11 1009.0 - 0.0 - Partly cloudy 10 - - - -
23/11:00pm 27.8 E 8 11 1009.2 - 0.0 - Partly cloudy 10 - - - -
23/10:30pm 27.8 ENE 8 12 1009.2 - 0.0 - Partly cloudy 10 - - - -
23/10:00pm 27.9 ENE 9 13 1009.0 - 0.0 - Partly cloudy 10 - - - -
23/09:30pm 27.8 ENE 6 11 1008.8 - 0.0 - Partly cloudy 10 - - - -
23/09:00pm 28.0 E 8 10 1008.6 - 0.0 - Mostly clear 10 - - - -
23/08:30pm 27.9 ENE 8 12 1008.1 - 0.0 - - 10 - - - -
23/08:00pm 28.0 E 7 10 1008.2 - 0.0 - - 10 - - - -
23/07:30pm 28.1 E 9 11 1007.9 - 0.0 - Partly cloudy 10 - - - -
23/07:00pm 28.2 E 8 12 1007.5 - 0.0 - Partly cloudy 10 - - - -
23/06:30pm 28.4 E 9 12 1007.0 - 0.0 - Partly cloudy 10 - - - -
23/06:00pm 28.7 E 10 13 1006.6 - 0.0 - Partly cloudy 10 - - - -
23/05:30pm 29.2 E 11 14 1006.5 - 0.0 - Partly cloudy 10 - - - -
23/05:00pm 29.3 E 12 17 1006.2 - 0.0 - Partly cloudy 10 - - - -
23/04:30pm 30.2 ENE 11 14 1005.8 - 0.0 - - 10 - - - -
23/04:00pm 30.6 ENE 11 14 1006.2 - 0.0 - - 10 - - - -
23/03:30pm 30.5 ENE 12 16 1006.1 - 0.0 - Partly cloudy 10 - - - -
23/03:00pm 30.2 ENE 11 17 1006.3 - 0.0 - Mostly clear 10 - - - -
23/02:30pm 30.4 ENE 12 16 1006.3 - 0.0 - Partly cloudy 10 - - - -
23/02:00pm 30.6 ENE 11 16 1006.6 - 0.0 - - 10 - - - -
23/01:30pm 31.1 ENE 12 17 1006.9 - 0.0 - - 10 - - - -
23/01:00pm 31.0 ENE 12 18 1007.3 - 0.0 - - 10 - - - -
23/12:30pm 31.3 E 13 17 1008.0 - 0.0 - - 10 - - - -
23/12:00pm 30.3 ENE 13 16 1008.4 - 0.0 - - 10 - - - -
23/11:30am 30.7 ENE 11 16 1008.4 - 0.0 - - 10 - - - -
23/11:00am 30.4 E 11 16 1008.7 - 0.0 - - 10 - - - -
23/10:30am 30.0 E 12 16 1008.9 - 0.0 - - 10 - - - -
23/10:00am 30.1 E 12 15 1008.8 - 0.0 - - 10 - - - -
23/09:30am 30.1 E 12 15 1009.0 - 0.0 - Partly cloudy 10 - - - -
23/09:00am 30.0 E 9 14 1009.1 - 0.0 - Partly cloudy 10 - - - -
23/08:30am 29.1 E 10 14 1008.8 - 0.0 - Partly cloudy 10 - - - -
23/08:00am 29.4 ESE 10 13 1008.4 - 0.0 - - 10 - - - -
23/07:30am 28.5 E 10 13 1008.0 - 0.0 - - 10 - - - -
23/07:00am 28.0 E 9 13 1007.9 - 0.0 - Partly cloudy 10 - - - -
23/06:30am 27.3 E 7 9 1007.7 - 0.0 - Partly cloudy 10 - - - -
23/06:00am 26.9 E 8 11 1007.1 - 0.0 - - 10 - - - -
23/05:30am 26.9 E 8 11 1006.7 - 0.0 - - 10 - - - -
23/05:00am 26.9 E 7 10 1006.6 - 0.0 - Partly cloudy 10 - - - -
23/04:30am 27.1 ESE 9 11 1006.5 - 0.0 - Partly cloudy 10 - - - -
23/04:00am 26.9 E 7 10 1006.3 - 0.0 - Partly cloudy 10 - - - -
23/03:30am 26.7 E 5 7 1006.1 - 0.0 - Partly cloudy 10 - - - -
23/03:00am 26.7 E 6 7 1005.9 - 0.0 - Partly cloudy 10 - - - -
23/02:30am 26.7 E 7 9 1005.8 - 0.0 - - 10 - - - -
23/02:00am 26.9 E 6 9 1006.2 - 0.0 - Partly cloudy 10 - - - -
23/01:30am 26.9 E 7 9 1006.5 - 0.0 - Partly cloudy 10 - - - -
23/01:00am 26.8 E 5 8 1006.9 - 0.0 - Partly cloudy 10 - - - -
23/12:30am 27.0 E 6 9 1006.9 - 0.0 - Partly cloudy 10 - - - -
23/12:00am 27.0 ENE 6 9 1007.0 - 0.0 - Mostly clear 10 - - - -
 
Date/Time
EST
Temp
°C
Wind Pressure Rain since
9am
mm
Weather Cloud Vis
km
Sea
Height
m
Swell
Dir  Spd
kts
Gust
kts
hPa Trend Height
m
Period
s
Dir
22/11:30pm 27.1 E 7 9 1007.2 - 0.0 - - 10 - - - -
22/11:00pm 27.1 ENE 7 9 1006.8 - 0.0 - - 10 - - - -
22/10:30pm 27.2 E 8 11 1007.0 - 0.0 - Partly cloudy 10 - - - -
22/10:00pm 27.2 E 8 11 1006.6 - 0.0 - Partly cloudy 10 - - - -
22/09:30pm 27.4 E 7 10 1006.7 - 0.0 - Partly cloudy 10 - - - -
22/09:00pm 27.5 E 8 11 1006.8 - 0.0 - Partly cloudy 10 - - - -
22/08:30pm 27.6 E 8 13 1006.4 - 0.0 - Partly cloudy 10 - - - -
22/08:00pm 27.5 ENE 9 12 1006.1 - 0.0 - Partly cloudy 10 - - - -
22/07:30pm 27.6 ENE 8 11 1005.8 - 0.0 - - 10 - - - -
22/07:00pm 27.7 ENE 9 13 1005.5 - 0.0 - - 10 - - - -
22/06:30pm 27.9 ENE 8 12 1005.4 - 0.0 - - 10 - - - -
22/06:00pm 28.5 E 11 16 1005.5 - 0.0 - - 10 - - - -
22/05:30pm 28.9 E 12 16 1005.2 - 0.0 - - 10 - - - -
22/05:00pm 29.5 ENE 12 17 1004.8 - 0.0 - - 10 - - - -
22/04:30pm 29.2 ENE 13 19 1004.7 - 0.0 - - 10 - - - -
22/04:00pm 29.9 ENE 13 18 1004.9 - 0.0 - - 10 - - - -
22/03:30pm 30.3 ENE 13 18 1005.2 - 0.0 - - 10 - - - -
22/03:00pm 30.4 ENE 12 18 1005.6 - 0.0 - - 10 - - - -
22/02:30pm 30.2 ENE 12 16 1005.8 - 0.0 - - 10 - - - -
22/02:00pm 30.2 ENE 13 19 1006.2 - 0.0 - - 10 - - - -
22/01:30pm 30.6 E 12 16 1006.7 - 0.0 - - 10 - - - -
22/01:00pm 30.2 E 12 17 1007.2 - 0.0 - - 10 - - - -
22/12:30pm 31.1 ENE 12 16 1007.7 - 0.0 - - 10 - - - -
22/12:00pm 30.8 E 13 17 1008.1 - 0.0 - - 10 - - - -
22/11:30am 30.0 ENE 13 18 1008.2 - 0.0 - - 10 - - - -
22/11:00am 30.6 E 13 18 1008.5 - 0.0 - Partly cloudy 10 - - - -
22/10:30am 29.4 E 12 16 1009.0 - 0.0 - Partly cloudy 10 - - - -
22/10:00am 30.1 E 13 17 1009.1 - 0.0 - Partly cloudy 10 - - - -
22/09:30am 31.0 E 12 17 1009.0 - 0.0 - - 10 - - - -
22/09:00am 29.1 E 12 16 1008.9 - 0.0 - - 10 - - - -
22/08:30am 29.6 E 12 17 1008.9 - 0.0 - Partly cloudy 10 - - - -
22/08:00am 28.9 E 11 15 1008.7 - 0.0 - - 10 - - - -
22/07:30am 28.7 E 11 15 1008.5 - 0.0 - - 10 - - - -
22/07:00am 27.9 E 10 14 1008.3 - 0.0 - Partly cloudy 10 - - - -
22/06:30am 27.0 E 7 11 1008.3 - 0.0 - Partly cloudy 10 - - - -
22/06:00am 26.8 E 8 11 1007.9 - 0.0 - Mostly clear 10 - - - -
22/05:30am 26.8 E 8 11 1007.6 - 0.0 - Partly cloudy 10 - - - -
22/05:00am 26.8 E 9 11 1007.2 - 0.0 - Partly cloudy 10 - - - -
22/04:30am 26.8 ESE 9 14 1006.7 - 0.0 - Partly cloudy 10 - - - -

Other Formats:

Comma delimited format used in spreadsheet applications
http://www.bom.gov.au/fwo/IDQ60701/IDQ60701.94174.axf

JavaScript Object Notation format (JSON) in row-major order
http://www.bom.gov.au/fwo/IDQ60701/IDQ60701.94174.json